Terminal Aerodrome Forecast
Issued by NWS Sterling, VA

Current Version | Previous Version | Graphics & Text | Print | Product List | Glossary On
Versions: 1 2 3 4 5 6 7 8 9 10 11 12 13 14 15 16 17 18 19 20 21 22 23 24 25 26 27 28
862
FTUS41 KLWX 191732
TAFDCA
TAF
KDCA 191732Z 1918/2018 34005KT P6SM FEW050 FEW250
     FM192200 28005KT P6SM FEW050 FEW250
     FM200000 VRB04KT P6SM BKN050
     FM200700 33004KT P6SM FEW200=

USA.gov is the U.S. government's official web portal to all federal, state and local government web resources and services.